createdAt,value
2023-05-24T00:02:09.090Z,100.00
2023-05-24T00:04:41.890Z,100.00
2023-05-24T00:07:13.956Z,100.00
2023-05-24T00:09:45.950Z,100.00
2023-05-24T00:12:18.269Z,100.00
2023-05-24T00:14:50.380Z,100.00
2023-05-24T00:17:22.670Z,100.00
2023-05-24T00:19:54.867Z,100.00
2023-05-24T00:22:26.863Z,100.00
2023-05-24T00:24:58.905Z,100.00
2023-05-24T00:27:31.241Z,100.00
2023-05-24T00:30:04.334Z,100.00
2023-05-24T00:32:36.530Z,100.00
2023-05-24T00:35:10.279Z,100.00
2023-05-24T00:37:45.669Z,100.00
2023-05-24T00:40:18.026Z,100.00
2023-05-24T00:42:50.084Z,100.00
2023-05-24T00:45:22.224Z,100.00
2023-05-24T00:47:54.338Z,100.00
2023-05-24T00:50:26.920Z,100.00
2023-05-24T00:52:59.932Z,100.00
2023-05-24T00:55:32.043Z,100.00
2023-05-24T00:58:04.146Z,100.00
2023-05-24T01:00:36.111Z,100.00
2023-05-24T01:03:08.994Z,100.00
2023-05-24T01:05:42.285Z,100.00
2023-05-24T01:08:16.910Z,100.00
2023-05-24T01:10:57.402Z,100.00
2023-05-24T01:13:31.313Z,100.00
2023-05-24T01:16:06.936Z,100.00
2023-05-24T01:18:45.688Z,100.00
2023-05-24T01:21:21.126Z,100.00
2023-05-24T01:23:58.103Z,100.00
2023-05-24T01:26:41.843Z,100.00
2023-05-24T01:29:13.935Z,100.00
2023-05-24T01:31:45.973Z,100.00
2023-05-24T01:34:18.223Z,100.00
2023-05-24T01:36:52.074Z,100.00
2023-05-24T01:39:24.443Z,100.00
2023-05-24T01:42:01.362Z,100.00
2023-05-24T01:44:36.665Z,100.00
2023-05-24T01:47:19.293Z,100.00
2023-05-24T01:49:54.808Z,100.00
2023-05-24T01:52:31.035Z,100.00
2023-05-24T01:55:03.257Z,100.00
2023-05-24T01:57:35.275Z,100.00
2023-05-24T02:00:10.071Z,100.00
2023-05-24T02:02:48.492Z,100.00
2023-05-24T02:05:21.692Z,100.00
2023-05-24T02:07:53.802Z,100.00
2023-05-24T02:10:25.998Z,100.00
2023-05-24T02:12:59.778Z,100.00
2023-05-24T02:15:31.787Z,100.00
2023-05-24T02:18:04.430Z,100.00
2023-05-24T02:20:37.845Z,100.00
2023-05-24T02:23:10.086Z,100.00
2023-05-24T02:25:42.351Z,100.00
2023-05-24T02:28:14.311Z,100.00
2023-05-24T02:30:47.227Z,100.00
2023-05-24T02:33:19.339Z,100.00
2023-05-24T02:35:51.506Z,100.00
2023-05-24T02:38:23.936Z,100.00
2023-05-24T02:40:56.141Z,100.00
2023-05-24T02:43:28.160Z,100.00
2023-05-24T02:46:00.306Z,100.00
2023-05-24T02:48:32.650Z,100.00
2023-05-24T02:51:04.874Z,100.00
2023-05-24T02:53:36.925Z,100.00
2023-05-24T02:56:09.450Z,100.00
2023-05-24T02:58:42.743Z,100.00
2023-05-24T03:01:14.764Z,100.00
2023-05-24T03:03:47.120Z,100.00
2023-05-24T03:06:20.048Z,100.00
2023-05-24T03:08:52.420Z,100.00
2023-05-24T03:11:24.719Z,100.00
2023-05-24T03:13:56.892Z,100.00
2023-05-24T03:16:29.723Z,100.00
2023-05-24T03:19:01.881Z,100.00
2023-05-24T03:21:33.912Z,100.00
2023-05-24T03:24:06.829Z,100.00
2023-05-24T03:26:38.837Z,100.00
2023-05-24T03:29:11.083Z,100.00
2023-05-24T03:31:45.576Z,100.00
2023-05-24T03:34:17.808Z,100.00
2023-05-24T03:36:49.895Z,100.00
2023-05-24T03:39:22.901Z,100.00
2023-05-24T03:42:15.157Z,100.00
2023-05-24T03:44:47.353Z,100.00
2023-05-24T03:47:19.304Z,100.00
2023-05-24T03:49:53.248Z,100.00
2023-05-24T03:52:25.411Z,100.00
2023-05-24T03:54:57.733Z,100.00
2023-05-24T03:57:29.900Z,100.00
2023-05-24T04:00:02.437Z,100.00
2023-05-24T04:02:35.104Z,100.00
2023-05-24T04:05:10.525Z,100.00
2023-05-24T04:07:44.195Z,100.00
2023-05-24T04:10:17.353Z,100.00
2023-05-24T04:12:49.564Z,100.00
2023-05-24T04:15:21.746Z,100.00
2023-05-24T04:17:55.458Z,100.00
2023-05-24T04:20:29.773Z,100.00
2023-05-24T04:23:03.242Z,100.00
2023-05-24T04:25:35.560Z,100.00
2023-05-24T04:28:10.531Z,100.00
2023-05-24T04:30:42.678Z,100.00
2023-05-24T04:33:15.211Z,100.00
2023-05-24T04:35:48.049Z,100.00
2023-05-24T04:38:21.989Z,100.00
2023-05-24T04:40:54.128Z,100.00
2023-05-24T04:43:27.054Z,100.00
2023-05-24T04:45:59.229Z,100.00
2023-05-24T04:48:31.409Z,100.00
2023-05-24T04:51:03.660Z,100.00
2023-05-24T04:53:35.904Z,100.00
2023-05-24T04:56:07.933Z,100.00
2023-05-24T04:58:39.979Z,100.00
2023-05-24T05:01:11.974Z,100.00
2023-05-24T05:03:46.465Z,100.00
2023-05-24T05:06:18.661Z,100.00
2023-05-24T05:08:50.823Z,100.00
2023-05-24T05:11:23.078Z,100.00
2023-05-24T05:13:55.449Z,100.00
2023-05-24T05:16:27.882Z,100.00
2023-05-24T05:19:00.190Z,100.00
2023-05-24T05:21:33.300Z,100.00
2023-05-24T05:24:05.344Z,100.00
2023-05-24T05:26:37.449Z,100.00
2023-05-24T05:29:09.532Z,100.00
2023-05-24T05:31:41.968Z,100.00
2023-05-24T05:34:13.944Z,100.00
2023-05-24T05:36:46.059Z,100.00
2023-05-24T05:39:18.082Z,100.00
2023-05-24T05:41:50.300Z,100.00
2023-05-24T05:44:23.267Z,100.00
2023-05-24T05:46:55.275Z,100.00
2023-05-24T05:49:27.469Z,100.00
2023-05-24T05:51:59.664Z,100.00
2023-05-24T05:54:32.367Z,100.00
2023-05-24T05:57:05.204Z,100.00
2023-05-24T05:59:37.403Z,100.00
2023-05-24T06:02:09.860Z,100.00
2023-05-24T06:04:42.181Z,100.00
2023-05-24T06:07:14.324Z,100.00
2023-05-24T06:09:46.886Z,100.00
2023-05-24T06:12:19.101Z,100.00
2023-05-24T06:14:52.820Z,100.00
2023-05-24T06:17:26.214Z,100.00
2023-05-24T06:19:58.372Z,100.00
2023-05-24T06:22:30.486Z,100.00
2023-05-24T06:25:02.905Z,100.00
2023-05-24T06:27:35.123Z,100.00
2023-05-24T06:30:09.893Z,100.00
2023-05-24T06:32:42.215Z,100.00
2023-05-24T06:35:14.402Z,100.00
2023-05-24T06:37:46.861Z,100.00
2023-05-24T06:40:19.342Z,100.00
2023-05-24T06:42:51.488Z,100.00
2023-05-24T06:45:23.981Z,100.00
2023-05-24T06:47:56.500Z,100.00
2023-05-24T06:50:30.779Z,100.00
2023-05-24T06:53:03.537Z,100.00
2023-05-24T06:55:35.924Z,100.00
2023-05-24T06:58:08.530Z,100.00
2023-05-24T07:00:40.486Z,100.00
2023-05-24T07:03:14.000Z,100.00
2023-05-24T07:05:46.853Z,100.00
2023-05-24T07:08:19.036Z,100.00
2023-05-24T07:10:51.244Z,100.00
2023-05-24T07:13:23.444Z,100.00
2023-05-24T07:15:55.951Z,100.00
2023-05-24T07:18:27.890Z,100.00
2023-05-24T07:21:01.430Z,100.00
2023-05-24T07:23:33.555Z,100.00
2023-05-24T07:26:06.270Z,100.00
2023-05-24T07:28:40.789Z,100.00
2023-05-24T07:31:13.695Z,100.00
2023-05-24T07:33:45.807Z,100.00
2023-05-24T07:36:17.952Z,100.00
2023-05-24T07:38:49.954Z,100.00
2023-05-24T07:41:22.028Z,100.00
2023-05-24T07:43:53.975Z,100.00
2023-05-24T07:46:26.113Z,100.00
2023-05-24T07:48:58.030Z,100.00
2023-05-24T07:51:32.118Z,100.00
2023-05-24T07:54:04.029Z,100.00
2023-05-24T07:56:36.464Z,100.00
2023-05-24T07:59:08.637Z,100.00
2023-05-24T08:01:40.787Z,100.00
2023-05-24T08:04:13.699Z,100.00
2023-05-24T08:06:47.054Z,100.00
2023-05-24T08:09:19.266Z,100.00
2023-05-24T08:11:51.217Z,100.00
2023-05-24T08:14:23.227Z,100.00
2023-05-24T08:16:55.637Z,100.00
2023-05-24T08:19:27.678Z,100.00
2023-05-24T08:22:04.943Z,100.00
2023-05-24T08:24:37.099Z,100.00
2023-05-24T08:27:09.303Z,100.00
2023-05-24T08:29:42.457Z,100.00
2023-05-24T08:32:14.416Z,100.00
2023-05-24T08:34:47.197Z,100.00
2023-05-24T08:37:21.982Z,100.00
2023-05-24T08:39:54.247Z,100.00
2023-05-24T08:42:26.542Z,100.00
2023-05-24T08:45:09.720Z,100.00
2023-05-24T08:47:42.779Z,100.00
2023-05-24T08:50:17.319Z,100.00
2023-05-24T08:52:49.683Z,100.00
2023-05-24T08:55:21.805Z,100.00
2023-05-24T08:57:53.949Z,100.00
2023-05-24T09:00:26.956Z,100.00
2023-05-24T09:03:00.248Z,100.00
2023-05-24T09:05:32.451Z,100.00
2023-05-24T09:08:04.506Z,95.38
2023-05-24T09:10:49.557Z,88.91
2023-05-24T09:13:26.991Z,83.54
2023-05-24T09:15:59.098Z,66.03
2023-05-24T09:18:31.104Z,67.38
2023-05-24T09:21:03.093Z,69.10
2023-05-24T09:23:35.039Z,68.21
2023-05-24T09:26:11.617Z,67.59
2023-05-24T09:28:44.717Z,66.53
2023-05-24T09:31:17.073Z,67.89
2023-05-24T09:33:49.916Z,68.78
2023-05-24T09:36:22.892Z,67.98
2023-05-24T09:38:58.686Z,68.51
2023-05-24T09:41:30.753Z,68.63
2023-05-24T09:44:03.721Z,68.29
2023-05-24T09:46:39.783Z,68.24
2023-05-24T09:49:11.791Z,69.12
2023-05-24T09:51:43.921Z,67.59
2023-05-24T09:54:16.146Z,67.16
2023-05-24T09:56:49.354Z,67.78
2023-05-24T09:59:21.752Z,67.96
2023-05-24T10:01:55.158Z,68.51
2023-05-24T10:04:36.005Z,69.15
2023-05-24T10:07:08.317Z,68.10
2023-05-24T10:09:40.329Z,66.11
2023-05-24T10:12:12.540Z,65.15
2023-05-24T10:14:44.565Z,64.92
2023-05-24T10:17:16.674Z,63.98
2023-05-24T10:19:52.032Z,63.50
2023-05-24T10:22:28.954Z,62.56
2023-05-24T10:25:02.013Z,63.19
2023-05-24T10:27:36.623Z,63.37
2023-05-24T10:30:16.862Z,64.09
2023-05-24T10:32:52.033Z,65.27
2023-05-24T10:35:27.647Z,65.58
2023-05-24T10:38:00.003Z,67.18
2023-05-24T10:40:32.072Z,68.41
2023-05-24T10:43:07.466Z,70.45
2023-05-24T10:45:40.463Z,72.55
2023-05-24T10:48:36.666Z,74.30
2023-05-24T10:51:39.848Z,75.86
2023-05-24T10:54:21.857Z,77.19
2023-05-24T10:56:54.257Z,77.10
2023-05-24T10:59:30.400Z,77.13
2023-05-24T11:02:02.483Z,79.40
2023-05-24T11:04:40.424Z,84.51
2023-05-24T11:07:12.377Z,88.96
2023-05-24T11:09:49.218Z,95.92
2023-05-24T11:12:22.043Z,96.17
2023-05-24T11:14:55.795Z,92.31
2023-05-24T11:17:27.926Z,89.53
2023-05-24T11:20:01.009Z,86.98
2023-05-24T11:22:33.068Z,80.84
2023-05-24T11:25:06.970Z,80.34
2023-05-24T11:27:39.540Z,80.64
2023-05-24T11:30:13.952Z,81.27
2023-05-24T11:32:48.873Z,81.52
2023-05-24T11:35:23.431Z,83.83
2023-05-24T11:37:57.150Z,81.05
2023-05-24T11:40:29.699Z,80.81
2023-05-24T11:43:02.310Z,78.30
2023-05-24T11:45:34.556Z,78.33
2023-05-24T11:48:09.319Z,76.71
2023-05-24T11:50:49.275Z,74.43
2023-05-24T11:53:22.932Z,71.99
2023-05-24T11:55:56.097Z,73.16
2023-05-24T11:58:30.948Z,73.85
2023-05-24T12:01:04.301Z,72.13
2023-05-24T12:03:37.462Z,71.23
2023-05-24T12:06:10.000Z,70.77
2023-05-24T12:08:43.242Z,70.12
2023-05-24T12:11:16.389Z,70.34
2023-05-24T12:13:48.398Z,72.62
2023-05-24T12:16:20.682Z,73.48
2023-05-24T12:19:03.772Z,74.72
2023-05-24T12:21:37.765Z,74.88
2023-05-24T12:24:14.040Z,76.65
2023-05-24T12:26:46.318Z,77.52
2023-05-24T12:29:18.628Z,78.42
2023-05-24T12:31:52.000Z,77.53
2023-05-24T12:34:24.359Z,75.48
2023-05-24T12:36:58.678Z,74.15
2023-05-24T12:39:32.232Z,73.81
2023-05-24T12:42:05.172Z,74.49
2023-05-24T12:44:38.451Z,75.32
2023-05-24T12:47:11.149Z,76.26
2023-05-24T12:49:44.960Z,77.18
2023-05-24T12:52:17.814Z,77.70
2023-05-24T12:54:50.375Z,76.45
2023-05-24T12:57:23.005Z,74.26
2023-05-24T12:59:55.574Z,72.71
2023-05-24T13:02:27.828Z,73.25
2023-05-24T13:05:00.059Z,73.77
2023-05-24T13:07:32.433Z,73.17
2023-05-24T13:10:04.695Z,71.58
2023-05-24T13:12:37.430Z,70.72
2023-05-24T13:15:11.343Z,70.84
2023-05-24T13:17:43.667Z,68.70
2023-05-24T13:20:16.469Z,68.34
2023-05-24T13:22:48.632Z,67.18
2023-05-24T13:25:22.915Z,64.90
2023-05-24T13:27:55.186Z,64.28
2023-05-24T13:30:28.800Z,63.89
2023-05-24T13:33:01.200Z,62.64
2023-05-24T13:35:33.916Z,61.33
2023-05-24T13:38:06.155Z,62.29
2023-05-24T13:40:41.405Z,61.88
2023-05-24T13:43:15.225Z,62.09
2023-05-24T13:45:47.744Z,64.02
2023-05-24T13:48:19.937Z,62.74
2023-05-24T13:50:51.957Z,62.24
2023-05-24T13:53:24.291Z,61.71
2023-05-24T13:55:56.755Z,59.90
2023-05-24T13:58:28.880Z,60.14
2023-05-24T14:24:19.963Z,48.38
2023-05-24T14:26:52.218Z,47.36
2023-05-24T14:29:24.484Z,48.63
2023-05-24T14:31:56.763Z,48.81
2023-05-24T14:34:29.168Z,48.36
2023-05-24T14:37:02.054Z,48.20
2023-05-24T14:39:34.570Z,48.63
2023-05-24T14:42:07.097Z,48.14
2023-05-24T14:44:39.280Z,49.33
2023-05-24T14:47:11.518Z,49.66
2023-05-24T14:49:43.615Z,50.08
2023-05-24T14:52:16.307Z,49.70
2023-05-24T14:54:48.249Z,48.61
2023-05-24T14:57:20.820Z,47.98
2023-05-24T14:59:52.824Z,46.70
2023-05-24T15:02:25.153Z,46.29
2023-05-24T15:04:57.390Z,45.96
2023-05-24T15:07:29.679Z,46.59
2023-05-24T15:10:01.954Z,46.90
2023-05-24T15:12:33.955Z,47.91
2023-05-24T15:15:07.128Z,48.15
2023-05-24T15:17:39.419Z,48.58
2023-05-24T15:20:13.166Z,49.26
2023-05-24T15:22:45.407Z,49.82
2023-05-24T15:25:17.614Z,50.89
2023-05-24T15:27:49.823Z,51.56
2023-05-24T15:30:24.228Z,52.97
2023-05-24T15:32:56.763Z,53.45
2023-05-24T15:35:28.716Z,53.53
2023-05-24T15:38:00.997Z,53.52
2023-05-24T15:40:33.246Z,53.43
2023-05-24T15:43:06.096Z,53.60
2023-05-24T15:45:40.668Z,53.95
2023-05-24T15:48:13.102Z,53.55
2023-05-24T15:50:57.850Z,52.34
2023-05-24T15:53:38.159Z,52.34
2023-05-24T15:56:10.960Z,52.24
2023-05-24T15:58:43.026Z,52.42
2023-05-24T16:01:15.019Z,52.48
2023-05-24T16:03:47.188Z,53.04
2023-05-24T16:06:19.564Z,52.73
2023-05-24T16:08:51.867Z,52.21
2023-05-24T16:11:24.748Z,52.59
2023-05-24T16:13:57.722Z,53.98
2023-05-24T16:16:30.247Z,54.13
2023-05-24T16:19:02.274Z,54.76
2023-05-24T16:21:34.206Z,54.74
2023-05-24T16:24:06.688Z,53.62
2023-05-24T16:26:38.557Z,54.12
2023-05-24T16:29:11.797Z,54.67
2023-05-24T16:31:43.995Z,55.61
2023-05-24T16:34:16.718Z,56.11
2023-05-24T16:36:49.157Z,57.00
2023-05-24T16:39:21.344Z,56.56
2023-05-24T16:41:54.297Z,56.31
2023-05-24T16:44:26.424Z,57.03
2023-05-24T16:46:59.144Z,57.29
2023-05-24T16:49:33.607Z,57.70
2023-05-24T16:52:05.741Z,58.37
2023-05-24T16:54:40.106Z,59.09
2023-05-24T16:57:12.670Z,59.94
2023-05-24T16:59:48.705Z,61.29
2023-05-24T17:02:25.485Z,61.56
2023-05-24T17:04:57.524Z,62.41
2023-05-24T17:07:30.979Z,63.48
2023-05-24T17:10:03.297Z,64.47
2023-05-24T17:12:35.526Z,66.01
2023-05-24T17:15:10.441Z,65.85
2023-05-24T17:17:43.676Z,66.01
2023-05-24T17:20:15.979Z,66.71
2023-05-24T17:22:49.743Z,69.35
2023-05-24T17:25:21.817Z,70.82
2023-05-24T17:27:54.125Z,78.46
2023-05-24T17:30:28.516Z,90.00
2023-05-24T17:33:01.024Z,94.84
2023-05-24T17:35:33.224Z,99.46
2023-05-24T17:38:05.310Z,99.78
2023-05-24T17:40:37.316Z,99.95
2023-05-24T17:43:09.618Z,100.00
2023-05-24T17:45:43.320Z,100.00
2023-05-24T17:48:15.959Z,100.00
2023-05-24T17:50:48.206Z,100.00
2023-05-24T17:53:30.850Z,100.00
2023-05-24T17:56:06.729Z,100.00
2023-05-24T17:58:39.378Z,100.00
2023-05-24T18:01:12.741Z,100.00
2023-05-24T18:03:45.191Z,100.00
2023-05-24T18:06:17.431Z,100.00
2023-05-24T18:08:49.731Z,100.00
2023-05-24T18:11:22.486Z,100.00
2023-05-24T18:13:54.558Z,100.00
2023-05-24T18:16:27.131Z,100.00
2023-05-24T18:18:59.223Z,100.00
2023-05-24T18:21:32.619Z,100.00
2023-05-24T18:24:04.680Z,100.00
2023-05-24T18:26:37.503Z,100.00
2023-05-24T18:29:09.499Z,100.00
2023-05-24T18:31:41.551Z,100.00
2023-05-24T18:34:13.967Z,100.00
2023-05-24T18:36:46.106Z,100.00
2023-05-24T18:39:19.371Z,100.00
2023-05-24T18:41:51.853Z,100.00
2023-05-24T18:44:24.109Z,100.00
2023-05-24T18:46:58.283Z,100.00
2023-05-24T18:49:32.890Z,100.00
2023-05-24T18:52:05.148Z,100.00
2023-05-24T18:54:37.484Z,100.00
2023-05-24T18:57:09.780Z,100.00
2023-05-24T18:59:42.124Z,100.00
2023-05-24T19:02:14.351Z,100.00
2023-05-24T19:04:48.582Z,100.00
2023-05-24T19:07:20.576Z,100.00
2023-05-24T19:09:52.945Z,100.00
2023-05-24T19:12:25.702Z,100.00
2023-05-24T19:14:58.013Z,100.00
2023-05-24T19:17:30.295Z,100.00
2023-05-24T19:20:02.477Z,100.00
2023-05-24T19:22:34.593Z,100.00
2023-05-24T19:25:07.767Z,100.00
2023-05-24T19:27:54.768Z,100.00
2023-05-24T19:30:31.254Z,100.00
2023-05-24T19:33:03.263Z,100.00
2023-05-24T19:35:35.291Z,100.00
2023-05-24T19:38:07.313Z,100.00
2023-05-24T19:40:39.589Z,100.00
2023-05-24T19:43:11.696Z,100.00
2023-05-24T19:45:44.733Z,100.00
2023-05-24T19:48:17.163Z,100.00
2023-05-24T19:50:49.234Z,100.00
2023-05-24T19:53:22.203Z,100.00
2023-05-24T19:55:54.275Z,100.00
2023-05-24T19:58:26.794Z,100.00
2023-05-24T20:00:58.726Z,100.00
2023-05-24T20:03:30.868Z,100.00
2023-05-24T20:06:02.957Z,100.00
2023-05-24T20:08:36.194Z,100.00
2023-05-24T20:11:08.551Z,100.00
2023-05-24T20:13:40.560Z,100.00
2023-05-24T20:16:12.601Z,100.00
2023-05-24T20:18:44.805Z,100.00
2023-05-24T20:21:18.658Z,100.00
2023-05-24T20:23:57.588Z,100.00
2023-05-24T20:26:30.298Z,100.00
2023-05-24T20:29:02.459Z,100.00
2023-05-24T20:31:34.876Z,100.00
2023-05-24T20:34:06.884Z,100.00
2023-05-24T20:36:38.957Z,100.00
2023-05-24T20:39:11.889Z,100.00
2023-05-24T20:41:43.844Z,100.00
2023-05-24T20:44:16.204Z,100.00
2023-05-24T20:46:48.524Z,100.00
2023-05-24T20:49:20.952Z,100.00
2023-05-24T20:51:52.989Z,100.00
2023-05-24T20:54:24.928Z,100.00
2023-05-24T20:56:57.452Z,100.00
2023-05-24T20:59:29.992Z,100.00
2023-05-24T21:02:02.048Z,100.00
2023-05-24T21:04:34.011Z,100.00
2023-05-24T21:07:08.210Z,100.00
2023-05-24T21:09:40.511Z,100.00
2023-05-24T21:12:12.663Z,100.00
2023-05-24T21:14:44.899Z,100.00
2023-05-24T21:17:17.049Z,100.00
2023-05-24T21:19:49.326Z,100.00
2023-05-24T21:22:21.461Z,100.00
2023-05-24T21:24:53.541Z,100.00
2023-05-24T21:27:26.712Z,100.00
2023-05-24T21:30:00.155Z,100.00
2023-05-24T21:32:32.283Z,100.00
2023-05-24T21:35:04.231Z,100.00
2023-05-24T21:37:37.133Z,100.00
2023-05-24T21:40:11.719Z,100.00
2023-05-24T21:42:45.158Z,100.00
2023-05-24T21:45:18.375Z,100.00
2023-05-24T21:47:50.560Z,100.00
2023-05-24T21:50:22.931Z,100.00
2023-05-24T21:52:55.030Z,100.00
2023-05-24T21:55:27.073Z,100.00
2023-05-24T21:57:59.273Z,100.00
2023-05-24T22:00:32.597Z,100.00
2023-05-24T22:03:05.348Z,100.00
2023-05-24T22:05:37.509Z,100.00
2023-05-24T22:08:09.506Z,100.00
2023-05-24T22:10:41.806Z,100.00
2023-05-24T22:13:13.750Z,100.00
2023-05-24T22:15:45.991Z,100.00
2023-05-24T22:18:18.744Z,100.00
2023-05-24T22:20:51.324Z,100.00
2023-05-24T22:23:23.479Z,100.00
2023-05-24T22:25:55.467Z,100.00
2023-05-24T22:28:27.479Z,100.00
2023-05-24T22:30:59.641Z,100.00
2023-05-24T22:33:31.650Z,100.00
2023-05-24T22:36:05.459Z,100.00
2023-05-24T22:38:37.401Z,100.00
2023-05-24T22:41:09.610Z,100.00
2023-05-24T22:43:41.753Z,100.00
2023-05-24T22:46:14.184Z,100.00
2023-05-24T22:48:46.655Z,100.00
2023-05-24T22:51:19.295Z,100.00
2023-05-24T22:53:52.875Z,100.00
2023-05-24T22:56:25.168Z,100.00
2023-05-24T22:58:57.142Z,100.00
2023-05-24T23:01:29.447Z,100.00
2023-05-24T23:04:15.836Z,100.00
2023-05-24T23:06:53.532Z,100.00
2023-05-24T23:09:34.386Z,100.00
2023-05-24T23:12:08.578Z,100.00
2023-05-24T23:14:41.735Z,100.00
2023-05-24T23:17:14.521Z,100.00
2023-05-24T23:19:50.657Z,100.00
2023-05-24T23:22:24.124Z,100.00
2023-05-24T23:24:56.269Z,100.00
2023-05-24T23:27:28.489Z,100.00
2023-05-24T23:30:00.519Z,100.00
2023-05-24T23:32:32.550Z,100.00
2023-05-24T23:35:04.702Z,100.00
2023-05-24T23:37:36.751Z,100.00
2023-05-24T23:40:10.778Z,100.00
2023-05-24T23:42:42.763Z,100.00
2023-05-24T23:45:16.796Z,100.00
2023-05-24T23:47:49.000Z,100.00
2023-05-24T23:50:22.756Z,100.00
2023-05-24T23:52:55.137Z,100.00
2023-05-24T23:55:27.473Z,100.00
2023-05-24T23:58:00.659Z,100.00
